Time;durP1;ratioP1;P1;durP2;ratioP2;P2;SDS_P1;SDS_P2;PMS_P1;PMS_P2;Temp;Humidity;BMP_temperature;BMP_pressure;BME280_temperature;BME280_humidity;BME280_pressure;Samples;Min_cycle;Max_cycle;Signal;HPM_P1;HPM_P2
2024/01/09 00:02:16;;;;;;;13.68;9.75;;;;;;;-0.81;100.00;102726.13;5035943;28;20036;-75
2024/01/09 00:04:42;;;;;;;6.07;4.50;;;;;;;-0.67;100.00;102737.06;5020007;28;20387;-75
2024/01/09 00:07:07;;;;;;;11.43;5.65;;;;;;;-0.74;100.00;102730.28;5019875;28;20037;-75
2024/01/09 00:09:34;;;;;;;10.43;6.53;;;;;;;-0.88;100.00;102723.69;5036135;28;20044;-75
2024/01/09 00:12:00;;;;;;;12.50;10.40;;;;;;;-0.79;100.00;102729.59;5052317;28;20495;-75
2024/01/09 00:14:29;;;;;;;8.93;5.55;;;;;;;-0.58;100.00;102728.84;5020624;28;20037;-75
2024/01/09 00:16:54;;;;;;;9.85;6.82;;;;;;;-0.71;100.00;102730.19;5019758;28;20365;-75
2024/01/09 00:19:20;;;;;;;11.30;7.30;;;;;;;-0.68;100.00;102730.06;5019698;28;20033;-75
2024/01/09 00:21:48;;;;;;;6.88;3.83;;;;;;;-0.61;100.00;102734.19;5019537;28;20119;-75
2024/01/09 00:24:13;;;;;;;11.55;6.60;;;;;;;-0.70;100.00;102730.13;5052526;28;20044;-75
2024/01/09 00:26:43;;;;;;;7.30;5.43;;;;;;;-0.72;100.00;102720.53;5019673;28;20037;-74
2024/01/09 00:29:09;;;;;;;9.02;6.95;;;;;;;-0.55;100.00;102722.56;5035649;28;20032;-74
2024/01/09 00:31:34;;;;;;;9.75;5.28;;;;;;;-0.61;100.00;102721.00;5053649;28;20426;-75
2024/01/09 00:34:00;;;;;;;9.23;6.68;;;;;;;-0.54;100.00;102703.16;5052162;28;20479;-75
2024/01/09 00:36:26;;;;;;;8.55;6.05;;;;;;;-0.40;100.00;102713.19;5019611;28;20483;-75
2024/01/09 00:38:51;;;;;;;10.95;7.10;;;;;;;-0.47;100.00;102710.78;5019613;28;20040;-74
2024/01/09 00:41:17;;;;;;;7.82;5.50;;;;;;;-0.36;100.00;102715.69;5035401;28;20398;-75
2024/01/09 00:43:43;;;;;;;12.07;7.32;;;;;;;-0.46;100.00;102706.38;5019775;28;20079;-75
2024/01/09 00:46:08;;;;;;;7.13;5.20;;;;;;;-0.37;100.00;102710.44;5036448;28;20351;-75
2024/01/09 00:48:35;;;;;;;7.80;5.35;;;;;;;-0.34;100.00;102708.56;5035821;28;20418;-75
2024/01/09 00:51:00;;;;;;;9.60;6.47;;;;;;;-0.30;100.00;102728.66;5003008;28;20128;-75
2024/01/09 00:53:26;;;;;;;12.98;5.28;;;;;;;-0.29;100.00;102716.31;5036239;28;20119;-75
2024/01/09 00:55:52;;;;;;;6.80;4.60;;;;;;;-0.52;100.00;102727.75;5019353;28;20382;-75
2024/01/09 00:58:17;;;;;;;8.35;4.90;;;;;;;-0.79;100.00;102716.41;5019228;28;20086;-74
2024/01/09 01:00:43;;;;;;;7.15;4.63;;;;;;;-0.93;100.00;102724.78;5019394;28;20082;-74
2024/01/09 01:03:09;;;;;;;7.72;5.80;;;;;;;-1.08;100.00;102720.91;5019366;28;20356;-74
2024/01/09 01:05:35;;;;;;;8.68;5.68;;;;;;;-1.37;100.00;102720.09;5035701;28;20037;-74
2024/01/09 01:08:01;;;;;;;7.50;5.07;;;;;;;-1.46;100.00;102714.25;5036550;28;20037;-74
2024/01/09 01:10:26;;;;;;;6.57;4.30;;;;;;;-1.63;100.00;102715.66;5019183;28;20521;-74
2024/01/09 01:12:52;;;;;;;8.38;4.93;;;;;;;-1.68;100.00;102708.81;5018967;28;20033;-74
2024/01/09 01:15:18;;;;;;;9.65;5.45;;;;;;;-1.68;100.00;102693.00;5019260;28;20076;-74
2024/01/09 01:17:44;;;;;;;8.05;4.53;;;;;;;-1.85;100.00;102701.44;5035796;28;20072;-74
2024/01/09 01:20:10;;;;;;;8.20;5.10;;;;;;;-2.00;100.00;102700.13;5035175;28;20036;-74
2024/01/09 01:22:36;;;;;;;11.80;6.38;;;;;;;-2.06;100.00;102703.81;5035134;28;20108;-74
2024/01/09 01:25:02;;;;;;;10.27;6.45;;;;;;;-2.03;100.00;102701.09;5019086;28;20530;-74
2024/01/09 01:27:27;;;;;;;10.68;6.47;;;;;;;-1.91;100.00;102705.09;5035407;28;20074;-74
2024/01/09 01:29:53;;;;;;;13.32;7.70;;;;;;;-1.59;100.00;102701.47;5018879;28;20132;-74
2024/01/09 01:32:19;;;;;;;12.38;8.80;;;;;;;-1.25;100.00;102694.22;5018936;28;20040;-74
2024/01/09 01:34:45;;;;;;;10.98;6.72;;;;;;;-0.88;100.00;102702.56;5018999;28;20179;-74
2024/01/09 01:37:11;;;;;;;10.90;6.78;;;;;;;-0.79;100.00;102711.13;5019223;28;20474;-74
2024/01/09 01:39:37;;;;;;;12.65;8.38;;;;;;;-0.80;100.00;102699.66;5035427;28;20102;-74
2024/01/09 01:42:03;;;;;;;8.23;5.15;;;;;;;-0.75;100.00;102687.16;5035381;28;20068;-74
2024/01/09 01:44:28;;;;;;;11.32;6.10;;;;;;;-0.75;100.00;102687.16;5019486;28;20114;-74
2024/01/09 01:46:54;;;;;;;15.30;7.28;;;;;;;-0.71;100.00;102678.22;5019442;28;20341;-74
2024/01/09 01:49:21;;;;;;;11.20;7.68;;;;;;;-0.63;100.00;102672.66;5018793;28;20041;-74
2024/01/09 01:51:49;;;;;;;8.68;6.00;;;;;;;-0.68;100.00;102670.16;5035132;28;20025;-74
2024/01/09 01:54:15;;;;;;;9.20;6.43;;;;;;;-0.69;100.00;102671.09;5035095;28;20037;-74
2024/01/09 01:56:41;;;;;;;14.27;7.68;;;;;;;-0.60;100.00;102679.59;5021528;28;20094;-74
2024/01/09 01:59:08;;;;;;;9.52;6.47;;;;;;;-0.59;100.00;102674.25;5021950;28;20037;-74
2024/01/09 02:01:34;;;;;;;9.13;6.03;;;;;;;-0.49;100.00;102659.78;5022233;28;20040;-74
2024/01/09 02:04:00;;;;;;;9.15;6.38;;;;;;;-0.33;100.00;102661.84;5038146;28;20052;-74
2024/01/09 02:06:26;;;;;;;12.85;7.97;;;;;;;-0.38;100.00;102650.59;5022210;28;20033;-74
2024/01/09 02:08:52;;;;;;;8.15;6.00;;;;;;;-0.42;100.00;102655.13;5022111;28;20076;-74
2024/01/09 02:11:18;;;;;;;11.10;6.07;;;;;;;-0.56;100.00;102665.34;5038310;28;20486;-74
2024/01/09 02:13:46;;;;;;;11.73;6.35;;;;;;;-0.82;100.00;102669.81;5006654;28;20045;-74
2024/01/09 02:16:11;;;;;;;9.13;5.28;;;;;;;-1.03;100.00;102678.47;5021979;28;20128;-74
2024/01/09 02:18:38;;;;;;;10.75;5.07;;;;;;;-1.22;100.00;102683.53;5021857;28;20043;-74
2024/01/09 02:21:04;;;;;;;10.05;6.20;;;;;;;-1.50;100.00;102681.84;5038306;28;20109;-74
2024/01/09 02:23:30;;;;;;;7.65;5.45;;;;;;;-1.87;100.00;102666.34;5038775;28;20029;-74
2024/01/09 02:25:56;;;;;;;12.60;6.68;;;;;;;-1.98;100.00;102674.59;5022293;28;20422;-74
2024/01/09 02:28:27;;;;;;;13.50;6.88;;;;;;;-2.12;100.00;102679.41;5021725;28;20119;-74
2024/01/09 02:30:55;;;;;;;10.07;4.85;;;;;;;-2.21;100.00;102686.69;5038595;28;20039;-74
2024/01/09 02:33:21;;;;;;;9.18;5.32;;;;;;;-2.19;100.00;102688.44;5021447;28;20083;-74
2024/01/09 02:35:46;;;;;;;11.57;7.07;;;;;;;-2.12;100.00;102675.00;5037653;28;20037;-74
2024/01/09 02:38:12;;;;;;;7.70;4.82;;;;;;;-2.03;100.00;102676.50;5037951;28;20395;-75
2024/01/09 02:40:38;;;;;;;11.30;5.18;;;;;;;-2.15;100.00;102680.38;5021506;28;20037;-74
2024/01/09 02:43:05;;;;;;;9.93;6.05;;;;;;;-2.09;100.00;102679.31;5021510;28;20036;-74
2024/01/09 02:45:30;;;;;;;8.68;4.43;;;;;;;-2.18;100.00;102683.09;5037784;28;20116;-74
2024/01/09 02:47:56;;;;;;;8.52;3.25;;;;;;;-2.28;100.00;102684.28;5021488;28;20167;-74
2024/01/09 02:50:22;;;;;;;9.68;4.63;;;;;;;-2.38;100.00;102678.44;5021417;28;20029;-74
2024/01/09 02:52:47;;;;;;;6.35;4.30;;;;;;;-2.55;100.00;102678.91;5021930;28;20055;-74
2024/01/09 02:55:13;;;;;;;11.52;4.90;;;;;;;-2.54;100.00;102688.56;5021475;28;20467;-74
2024/01/09 02:57:40;;;;;;;3.80;3.30;;;;;;;-2.64;100.00;102680.97;5021179;28;20043;-74
2024/01/09 03:00:10;;;;;;;7.60;4.60;;;;;;;-2.54;100.00;102669.22;5021323;28;20071;-74
2024/01/09 03:02:36;;;;;;;9.52;4.78;;;;;;;-2.31;100.00;102684.38;5037575;28;20048;-74
2024/01/09 03:05:06;;;;;;;12.88;5.53;;;;;;;-2.17;100.00;102681.31;5020440;28;20044;-74
2024/01/09 03:07:33;;;;;;;10.18;4.40;;;;;;;-1.98;100.00;102682.50;5021128;28;20098;-74
2024/01/09 03:09:58;;;;;;;5.70;4.07;;;;;;;-1.80;100.00;102681.03;5020895;28;20032;-74
2024/01/09 03:12:24;;;;;;;13.15;5.72;;;;;;;-1.61;100.00;102681.34;5053263;28;20033;-75
2024/01/09 03:14:50;;;;;;;8.02;4.00;;;;;;;-1.50;100.00;102679.19;5004459;28;20037;-74
2024/01/09 03:17:16;;;;;;;7.32;3.58;;;;;;;-1.50;100.00;102666.00;5020773;28;20043;-74
2024/01/09 03:19:44;;;;;;;8.02;5.00;;;;;;;-1.44;100.00;102665.78;5053378;28;20040;-74
2024/01/09 03:22:10;;;;;;;17.17;6.60;;;;;;;-1.43;100.00;102664.00;5037064;28;20037;-74
2024/01/09 03:24:35;;;;;;;9.18;4.85;;;;;;;-1.43;100.00;102659.63;5036680;28;20067;-74
2024/01/09 03:27:01;;;;;;;7.20;4.13;;;;;;;-1.38;100.00;102660.31;5020747;28;20375;-74
2024/01/09 03:29:26;;;;;;;9.20;3.97;;;;;;;-1.34;100.00;102648.75;5037013;28;20387;-74
2024/01/09 03:31:52;;;;;;;10.60;6.55;;;;;;;-1.13;100.00;102652.41;5036791;28;20090;-74
2024/01/09 03:34:18;;;;;;;4.95;3.47;;;;;;;-0.91;100.00;102651.66;5020565;28;20099;-74
2024/01/09 03:36:44;;;;;;;5.05;3.25;;;;;;;-0.75;100.00;102654.59;5036904;28;20076;-74
2024/01/09 03:39:11;;;;;;;8.50;4.82;;;;;;;-0.73;100.00;102650.97;5020476;28;20418;-74
2024/01/09 03:41:37;;;;;;;11.07;5.68;;;;;;;-0.79;100.00;102651.22;5020477;28;20029;-74
2024/01/09 03:44:03;;;;;;;9.75;4.20;;;;;;;-0.76;100.00;102659.03;5020273;28;20365;-74
2024/01/09 03:46:28;;;;;;;6.28;4.63;;;;;;;-0.80;100.00;102660.03;5053165;28;20101;-74
2024/01/09 03:48:54;;;;;;;6.78;3.97;;;;;;;-0.80;100.00;102660.03;5020204;28;20040;-74
2024/01/09 03:51:20;;;;;;;4.13;2.85;;;;;;;-0.73;100.00;102658.06;5020085;28;20028;-74
2024/01/09 03:53:45;;;;;;;4.80;3.67;;;;;;;-0.73;100.00;102653.63;5020193;28;20036;-74
2024/01/09 03:56:11;;;;;;;6.28;3.80;;;;;;;-0.76;100.00;102660.81;5036325;28;20025;-74
2024/01/09 03:58:37;;;;;;;8.65;3.92;;;;;;;-0.85;100.00;102635.56;5020086;28;20032;-74
2024/01/09 04:01:03;;;;;;;7.65;4.55;;;;;;;-0.70;100.00;102652.66;5036516;28;20031;-74
2024/01/09 04:03:29;;;;;;;4.97;3.83;;;;;;;-0.58;100.00;102646.03;5019975;28;20379;-74
2024/01/09 04:05:55;;;;;;;9.27;4.75;;;;;;;-0.55;100.00;102635.38;5019970;28;20037;-75
2024/01/09 04:08:20;;;;;;;6.22;3.75;;;;;;;-0.37;100.00;102654.94;5036140;28;20530;-75
2024/01/09 04:10:46;;;;;;;7.20;3.80;;;;;;;-0.33;100.00;102651.28;5036199;28;20064;-74
2024/01/09 04:13:12;;;;;;;6.35;3.90;;;;;;;-0.34;100.00;102652.22;5019527;28;20028;-74
2024/01/09 04:15:38;;;;;;;4.78;3.45;;;;;;;-0.32;100.00;102650.34;5019823;28;20425;-74
2024/01/09 04:18:04;;;;;;;8.18;4.65;;;;;;;-0.22;100.00;102646.44;5035299;28;20650;-74
2024/01/09 04:20:30;;;;;;;5.90;3.45;;;;;;;-0.08;100.00;102638.81;5019716;28;20068;-74
2024/01/09 04:22:55;;;;;;;6.57;4.00;;;;;;;0.09;100.00;102646.06;5019383;28;20139;-75
2024/01/09 04:25:21;;;;;;;4.25;2.63;;;;;;;0.24;100.00;102643.72;5019716;28;20103;-74
2024/01/09 04:27:47;;;;;;;10.45;4.72;;;;;;;0.26;100.00;102636.59;5019683;28;20041;-74
2024/01/09 04:30:13;;;;;;;5.43;3.17;;;;;;;0.35;100.00;102636.22;5019347;28;20072;-74
2024/01/09 04:32:38;;;;;;;6.97;3.60;;;;;;;0.39;100.00;102633.38;5019393;28;20029;-74
2024/01/09 04:35:04;;;;;;;7.13;3.63;;;;;;;0.40;100.00;102632.47;5019604;28;20167;-74
2024/01/09 04:37:30;;;;;;;7.40;3.65;;;;;;;0.39;100.00;102633.38;5019554;28;20040;-74
2024/01/09 04:39:56;;;;;;;4.70;2.85;;;;;;;0.35;100.00;102631.78;5019549;28;20479;-75
2024/01/09 04:42:21;;;;;;;5.68;2.10;;;;;;;0.38;100.00;102636.94;5019185;28;20032;-74
2024/01/09 04:44:47;;;;;;;4.20;2.63;;;;;;;0.42;100.00;102637.66;5019507;28;20029;-74
2024/01/09 04:47:15;;;;;;;5.70;2.67;;;;;;;0.50;100.00;102637.34;5035881;28;20040;-74
2024/01/09 04:49:43;;;;;;;4.28;3.00;;;;;;;0.37;100.00;102613.19;5052167;28;20037;-74
2024/01/09 04:52:08;;;;;;;4.35;2.88;;;;;;;0.50;100.00;102643.50;5019312;28;20032;-74
2024/01/09 04:54:34;;;;;;;5.63;2.97;;;;;;;0.47;100.00;102634.84;5035676;28;20040;-74
2024/01/09 04:57:00;;;;;;;4.47;2.60;;;;;;;0.57;100.00;102646.75;5019390;28;20049;-74
2024/01/09 04:59:25;;;;;;;4.70;3.05;;;;;;;0.63;100.00;102642.06;5019399;28;20037;-74
2024/01/09 05:01:51;;;;;;;5.57;2.80;;;;;;;0.70;100.00;102647.97;5019065;28;20029;-75
2024/01/09 05:04:17;;;;;;;4.60;2.75;;;;;;;0.74;100.00;102635.44;5035462;28;20063;-74
2024/01/09 05:06:42;;;;;;;7.28;3.47;;;;;;;0.81;100.00;102635.13;5019263;28;20087;-75
2024/01/09 05:09:08;;;;;;;6.03;3.15;;;;;;;0.85;100.00;102636.72;5019251;28;20037;-74
2024/01/09 05:11:34;;;;;;;4.88;2.83;;;;;;;0.85;100.00;102639.38;5035557;28;20071;-74
2024/01/09 05:13:59;;;;;;;4.93;2.45;;;;;;;0.82;100.00;102636.84;5019250;28;20407;-74
2024/01/09 05:16:27;;;;;;;4.97;2.67;;;;;;;0.81;100.00;102639.56;5019174;28;20391;-74
2024/01/09 05:18:53;;;;;;;4.90;2.90;;;;;;;0.82;100.00;102634.22;5035371;28;20100;-74
2024/01/09 05:21:19;;;;;;;4.57;2.45;;;;;;;0.81;100.00;102643.06;5019083;28;20033;-74
2024/01/09 05:23:45;;;;;;;3.35;1.80;;;;;;;0.82;100.00;102642.16;5019096;28;20380;-75
2024/01/09 05:26:11;;;;;;;4.97;2.65;;;;;;;0.81;100.00;102636.91;5019480;28;20029;-74
2024/01/09 05:28:37;;;;;;;6.75;2.60;;;;;;;0.81;100.00;102635.13;5035484;28;20029;-74
2024/01/09 05:31:02;;;;;;;6.80;2.60;;;;;;;0.79;100.00;102636.97;5037638;28;20051;-74
2024/01/09 05:33:28;;;;;;;4.43;3.00;;;;;;;0.85;100.00;102631.41;5022516;28;20061;-74
2024/01/09 05:35:54;;;;;;;6.30;2.58;;;;;;;0.88;100.00;102628.63;5022712;28;20036;-74
2024/01/09 05:38:20;;;;;;;7.78;2.60;;;;;;;0.91;100.00;102630.28;5023266;28;20049;-75
2024/01/09 05:40:46;;;;;;;3.42;2.53;;;;;;;0.94;100.00;102634.59;5006296;28;20045;-74
2024/01/09 05:43:13;;;;;;;5.60;2.28;;;;;;;0.96;100.00;102628.31;5039713;28;20407;-74
2024/01/09 05:45:38;;;;;;;6.60;2.78;;;;;;;0.97;100.00;102634.44;5006274;28;20098;-74
2024/01/09 05:48:05;;;;;;;7.65;3.10;;;;;;;0.99;100.00;102637.91;5022467;28;20095;-74
2024/01/09 05:50:30;;;;;;;6.03;2.97;;;;;;;1.00;100.00;102635.16;5039193;28;20040;-74
2024/01/09 05:52:56;;;;;;;7.03;2.65;;;;;;;1.02;100.00;102635.13;5022189;28;20468;-75
2024/01/09 05:55:22;;;;;;;7.93;3.05;;;;;;;1.03;100.00;102634.16;5038834;28;20028;-74
2024/01/09 05:57:47;;;;;;;5.05;2.08;;;;;;;1.03;100.00;102637.72;5038702;28;20040;-75
2024/01/09 06:00:14;;;;;;;7.07;2.50;;;;;;;0.99;100.00;102638.75;5022411;28;20040;-74
2024/01/09 06:02:40;;;;;;;8.73;2.78;;;;;;;0.92;100.00;102625.84;5022264;28;20045;-74
2024/01/09 06:05:06;;;;;;;9.07;3.42;;;;;;;0.90;100.00;102633.88;5022098;28;20123;-74
2024/01/09 06:07:32;;;;;;;6.38;2.40;;;;;;;0.91;100.00;102634.72;5022165;28;20123;-74
2024/01/09 06:09:58;;;;;;;8.57;2.67;;;;;;;0.92;100.00;102637.28;5022184;28;20033;-74
2024/01/09 06:12:24;;;;;;;5.78;2.45;;;;;;;0.95;100.00;102637.16;5021972;28;20035;-74
2024/01/09 06:14:49;;;;;;;5.07;2.20;;;;;;;0.96;100.00;102640.69;5038572;28;20146;-74
2024/01/09 06:17:15;;;;;;;5.80;2.28;;;;;;;0.93;100.00;102639.03;5022085;28;20048;-74
2024/01/09 06:19:41;;;;;;;8.40;2.67;;;;;;;0.90;100.00;102639.19;5038431;28;20075;-74
2024/01/09 06:22:07;;;;;;;4.20;2.35;;;;;;;0.90;100.00;102638.28;5038377;28;20094;-74
2024/01/09 06:24:33;;;;;;;4.13;2.67;;;;;;;0.90;100.00;102638.28;5038318;28;20037;-74
2024/01/09 06:26:58;;;;;;;8.65;3.72;;;;;;;0.87;100.00;102644.59;5021914;28;20037;-74
2024/01/09 06:29:24;;;;;;;6.03;2.80;;;;;;;0.90;100.00;102647.13;5021810;28;20048;-74
2024/01/09 06:31:50;;;;;;;5.80;2.90;;;;;;;0.92;100.00;102652.34;5054567;28;20061;-75
2024/01/09 06:34:15;;;;;;;8.00;2.83;;;;;;;0.96;100.00;102644.19;5054310;28;20037;-74
2024/01/09 06:36:45;;;;;;;4.57;2.50;;;;;;;0.99;100.00;102648.50;5021663;28;20029;-74
2024/01/09 06:39:12;;;;;;;2.85;2.08;;;;;;;0.94;100.00;102653.13;5037943;28;20037;-74
2024/01/09 06:41:38;;;;;;;5.80;2.67;;;;;;;0.91;100.00;102645.31;5037471;28;20068;-74
2024/01/09 06:44:03;;;;;;;9.27;2.45;;;;;;;0.92;100.00;102637.28;5021270;28;20073;-74
2024/01/09 06:46:29;;;;;;;7.70;3.53;;;;;;;0.93;100.00;102644.34;5021448;28;20078;-74
2024/01/09 06:48:55;;;;;;;6.47;2.63;;;;;;;0.97;100.00;102645.06;5021421;28;20041;-74
2024/01/09 06:51:21;;;;;;;8.77;2.53;;;;;;;0.96;100.00;102651.28;5022127;28;20522;-74
2024/01/09 06:53:46;;;;;;;5.88;2.63;;;;;;;0.97;100.00;102653.84;5021367;28;20364;-74
2024/01/09 06:56:12;;;;;;;3.15;1.90;;;;;;;0.98;100.00;102662.66;5021264;28;20037;-74
2024/01/09 06:58:38;;;;;;;9.73;2.92;;;;;;;0.93;100.00;102656.69;5037700;28;20069;-74
2024/01/09 07:01:04;;;;;;;6.95;3.33;;;;;;;0.95;100.00;102658.34;5021128;28;20040;-74
2024/01/09 07:03:37;;;;;;;5.32;2.78;;;;;;;1.01;100.00;102658.09;5037725;28;20521;-74
2024/01/09 07:06:03;;;;;;;9.70;3.15;;;;;;;1.01;100.00;102657.25;5022074;28;20029;-74
2024/01/09 07:08:28;;;;;;;7.50;2.72;;;;;;;1.01;100.00;102659.91;5020598;28;20035;-74
2024/01/09 07:10:54;;;;;;;5.80;2.63;;;;;;;1.01;100.00;102657.25;5020897;28;20053;-74
2024/01/09 07:13:21;;;;;;;7.03;2.28;;;;;;;0.98;100.00;102650.28;5037081;28;20039;-74
2024/01/09 07:15:46;;;;;;;1.98;1.60;;;;;;;0.93;100.00;102651.41;5037338;28;20032;-74
2024/01/09 07:18:12;;;;;;;7.68;2.88;;;;;;;0.82;100.00;102651.88;5020802;28;20035;-74
2024/01/09 07:20:38;;;;;;;5.25;2.60;;;;;;;0.79;100.00;102663.44;5020795;28;20033;-74
2024/01/09 07:23:03;;;;;;;4.78;2.45;;;;;;;0.79;100.00;102657.28;5020817;28;20033;-74
2024/01/09 07:25:29;;;;;;;5.38;2.60;;;;;;;0.85;100.00;102663.19;5037171;28;20384;-74
2024/01/09 07:27:55;;;;;;;4.90;2.08;;;;;;;0.91;100.00;102659.44;5036994;28;20037;-74
2024/01/09 07:30:20;;;;;;;2.17;1.40;;;;;;;1.00;100.00;102666.97;5036938;28;20037;-74
2024/01/09 07:32:46;;;;;;;3.83;1.95;;;;;;;1.04;100.00;102665.91;5020391;28;20041;-74
2024/01/09 07:35:12;;;;;;;3.63;2.08;;;;;;;1.08;100.00;102666.63;5020554;28;20041;-74
2024/01/09 07:37:37;;;;;;;6.70;3.05;;;;;;;1.08;100.00;102661.31;5020503;28;20049;-74
2024/01/09 07:40:04;;;;;;;3.22;2.05;;;;;;;1.13;100.00;102677.03;5020504;28;20051;-74
2024/01/09 07:42:31;;;;;;;3.78;2.00;;;;;;;1.11;100.00;102669.13;5052983;28;20410;-75
2024/01/09 07:44:56;;;;;;;4.30;2.20;;;;;;;1.09;100.00;102671.00;5020071;28;20053;-74
2024/01/09 07:47:23;;;;;;;6.50;2.20;;;;;;;1.02;100.00;102674.84;5052939;28;20444;-74
2024/01/09 07:49:49;;;;;;;6.50;1.90;;;;;;;1.02;100.00;102673.06;5020266;28;20052;-74
2024/01/09 07:52:15;;;;;;;7.85;3.00;;;;;;;0.98;100.00;102673.25;5019560;28;20043;-74
2024/01/09 07:54:41;;;;;;;4.55;2.20;;;;;;;1.07;100.00;102678.16;5036244;28;20124;-74
2024/01/09 07:57:07;;;;;;;6.07;2.15;;;;;;;1.03;100.00;102671.25;5036104;28;20033;-74
2024/01/09 07:59:33;;;;;;;4.53;2.20;;;;;;;1.03;100.00;102676.56;5020162;28;20033;-74
2024/01/09 08:02:00;;;;;;;5.53;2.38;;;;;;;0.99;100.00;102689.09;5004256;28;20051;-74
2024/01/09 08:04:25;;;;;;;6.13;2.65;;;;;;;1.09;100.00;102687.75;5036493;28;20492;-74
2024/01/09 08:06:52;;;;;;;6.35;2.28;;;;;;;1.16;100.00;102698.94;5020100;28;20131;-74
2024/01/09 08:09:18;;;;;;;4.57;2.08;;;;;;;1.15;100.00;102693.72;5036605;28;20412;-74
2024/01/09 08:11:45;;;;;;;3.88;1.80;;;;;;;1.06;100.00;102690.56;5003329;28;20064;-74
2024/01/09 08:14:25;;;;;;;4.63;2.63;;;;;;;1.06;100.00;102695.00;5052930;28;20120;-74
2024/01/09 08:16:51;;;;;;;5.97;2.40;;;;;;;1.09;100.00;102692.22;5020173;28;20029;-74
2024/01/09 08:19:17;;;;;;;6.13;2.42;;;;;;;1.11;100.00;102700.94;5019782;28;20486;-75
2024/01/09 08:21:42;;;;;;;4.80;2.00;;;;;;;1.13;100.00;102701.72;5019720;28;20041;-74
2024/01/09 08:24:08;;;;;;;5.18;2.40;;;;;;;1.15;100.00;102706.97;5019819;28;20097;-74
2024/01/09 08:26:34;;;;;;;5.90;2.33;;;;;;;1.12;100.00;102696.50;5036033;28;20040;-74
2024/01/09 08:29:02;;;;;;;3.85;1.90;;;;;;;1.25;100.00;102714.44;5036160;28;20043;-74
2024/01/09 08:31:28;;;;;;;5.38;2.25;;;;;;;1.22;100.00;102711.94;5035838;28;20104;-74
2024/01/09 08:33:54;;;;;;;10.13;2.60;;;;;;;1.18;100.00;102715.63;5019553;28;20124;-74
2024/01/09 08:36:20;;;;;;;6.00;2.22;;;;;;;1.19;100.00;102716.50;5035826;28;20387;-74
2024/01/09 08:38:46;;;;;;;5.55;2.42;;;;;;;1.20;100.00;102721.75;5019572;28;20037;-74
2024/01/09 08:41:20;;;;;;;3.78;2.40;;;;;;;1.15;100.00;102726.38;5019529;28;20039;-74
2024/01/09 08:43:46;;;;;;;9.80;2.38;;;;;;;1.09;100.00;102719.56;5035862;28;20037;-75
2024/01/09 08:46:12;;;;;;;7.53;2.50;;;;;;;1.04;100.00;102723.34;5036202;28;20068;-74
2024/01/09 08:48:37;;;;;;;4.57;2.33;;;;;;;1.04;100.00;102716.25;5019515;28;20486;-75
2024/01/09 08:51:03;;;;;;;5.60;2.17;;;;;;;1.02;100.00;102717.22;5019517;28;20486;-75
2024/01/09 08:53:29;;;;;;;7.75;2.30;;;;;;;1.00;100.00;102725.22;5019947;28;20028;-74
2024/01/09 08:55:55;;;;;;;9.48;2.92;;;;;;;1.10;100.00;102723.06;5019426;28;20451;-74
2024/01/09 08:58:21;;;;;;;4.25;2.53;;;;;;;1.18;100.00;102720.94;5019217;28;20033;-74
2024/01/09 09:00:47;;;;;;;6.15;2.75;;;;;;;1.23;100.00;102729.56;5019266;28;20037;-74
2024/01/09 09:03:13;;;;;;;4.45;2.20;;;;;;;1.24;100.00;102725.97;5019369;28;20029;-75
2024/01/09 09:05:38;;;;;;;7.95;2.65;;;;;;;1.24;100.00;102738.34;5022476;28;20083;-74
2024/01/09 09:08:04;;;;;;;4.85;2.38;;;;;;;1.24;100.00;102735.72;5039424;28;20033;-74
2024/01/09 09:10:30;;;;;;;5.63;2.67;;;;;;;1.20;100.00;102736.78;5023237;28;20033;-74
2024/01/09 09:12:56;;;;;;;6.72;2.92;;;;;;;1.23;100.00;102731.34;5022982;28;20033;-75
2024/01/09 09:15:21;;;;;;;5.85;2.78;;;;;;;1.29;100.00;102737.22;5039621;28;20040;-74
2024/01/09 09:17:47;;;;;;;5.30;2.83;;;;;;;1.28;100.00;102739.97;5039586;28;20033;-75
2024/01/09 09:20:13;;;;;;;3.78;2.50;;;;;;;1.30;100.00;102744.25;5023075;28;20065;-75
2024/01/09 09:22:39;;;;;;;7.50;2.78;;;;;;;1.30;100.00;102738.97;5039536;28;20040;-74
2024/01/09 09:25:06;;;;;;;4.70;2.65;;;;;;;1.29;100.00;102745.16;5039601;28;20067;-74
2024/01/09 09:27:32;;;;;;;5.72;2.60;;;;;;;1.30;100.00;102744.25;5022762;28;20047;-74
2024/01/09 09:29:57;;;;;;;6.38;3.38;;;;;;;1.30;100.00;102752.22;5022534;28;20037;-74
2024/01/09 09:32:23;;;;;;;5.32;2.60;;;;;;;1.35;100.00;102748.47;5038714;28;20051;-75
2024/01/09 09:34:49;;;;;;;5.25;2.60;;;;;;;1.34;100.00;102754.72;5037618;28;20044;-76
2024/01/09 09:37:15;;;;;;;6.15;2.60;;;;;;;1.35;100.00;102762.63;5054903;28;20033;-75
2024/01/09 09:39:40;;;;;;;4.68;2.33;;;;;;;1.35;100.00;102757.31;5039054;28;20039;-75
2024/01/09 09:42:07;;;;;;;7.68;2.88;;;;;;;1.38;100.00;102757.19;5022726;28;20102;-75
2024/01/09 09:44:35;;;;;;;5.78;2.45;;;;;;;1.38;100.00;102764.28;5022620;28;20041;-75
2024/01/09 09:47:01;;;;;;;5.18;2.67;;;;;;;1.42;100.00;102763.19;5039091;28;20028;-76
2024/01/09 09:49:26;;;;;;;4.45;1.77;;;;;;;1.46;100.00;102762.16;5039000;28;20107;-76
2024/01/09 09:51:53;;;;;;;5.00;2.50;;;;;;;1.50;100.00;102767.22;5022965;28;20436;-75
2024/01/09 09:54:19;;;;;;;5.00;2.53;;;;;;;1.56;100.00;102766.09;5022322;28;20044;-75
2024/01/09 09:56:45;;;;;;;5.25;3.15;;;;;;;1.60;100.00;102759.75;5022405;28;20490;-76
2024/01/09 09:59:12;;;;;;;6.70;2.42;;;;;;;1.69;100.00;102761.09;5022321;28;20036;-76
2024/01/09 10:01:38;;;;;;;8.38;2.50;;;;;;;1.73;100.00;102762.69;5022027;28;20033;-75
2024/01/09 10:04:24;;;;;;;5.72;2.92;;;;;;;1.77;100.00;102764.28;5055470;28;20075;-76
2024/01/09 10:06:52;;;;;;;6.85;3.30;;;;;;;1.78;100.00;102763.34;5038601;28;20483;-75
2024/01/09 10:09:18;;;;;;;4.65;2.20;;;;;;;1.81;100.00;102767.66;5055244;28;20494;-75
2024/01/09 10:11:49;;;;;;;4.38;2.47;;;;;;;1.80;100.00;102769.47;5038499;28;20065;-75
2024/01/09 10:14:14;;;;;;;5.75;2.15;;;;;;;1.81;100.00;102770.31;5054889;28;20499;-76
2024/01/09 10:16:53;;;;;;;7.13;2.90;;;;;;;1.83;100.00;102774.63;5037542;28;20041;-76
2024/01/09 10:19:22;;;;;;;4.57;2.53;;;;;;;1.82;100.00;102778.19;5022540;28;20344;-75
2024/01/09 10:21:48;;;;;;;5.70;2.35;;;;;;;1.84;100.00;102781.63;5022399;28;20040;-75
2024/01/09 10:24:15;;;;;;;4.93;2.13;;;;;;;1.82;100.00;102778.19;5054618;28;20072;-75
2024/01/09 10:26:41;;;;;;;9.70;2.60;;;;;;;1.84;100.00;102775.47;5054802;28;20068;-75
2024/01/09 10:29:13;;;;;;;4.47;2.40;;;;;;;1.91;100.00;102780.44;5021812;28;20037;-76
2024/01/09 10:31:42;;;;;;;7.70;2.60;;;;;;;1.93;100.00;102781.25;5037917;28;20041;-76
2024/01/09 10:34:09;;;;;;;4.78;2.20;;;;;;;2.01;100.00;102780.84;5054292;28;20064;-76
2024/01/09 10:36:34;;;;;;;6.45;2.85;;;;;;;2.07;100.00;102777.94;5021676;28;20486;-76
2024/01/09 10:39:07;;;;;;;5.15;2.30;;;;;;;2.11;100.00;102771.53;5021436;28;20158;-75
2024/01/09 10:41:33;;;;;;;5.82;2.38;;;;;;;2.14;100.00;102779.38;5021702;28;20110;-76
2024/01/09 10:43:59;;;;;;;15.13;2.80;;;;;;;2.14;100.00;102778.50;5037848;28;20041;-76
2024/01/09 10:46:26;;;;;;;6.78;2.70;;;;;;;2.14;100.00;102770.53;5021485;28;20060;-75
2024/01/09 10:48:53;;;;;;;8.45;2.72;;;;;;;2.11;100.00;102784.81;5037604;28;20044;-75
2024/01/09 10:51:23;;;;;;;6.22;2.45;;;;;;;2.08;100.00;102784.09;5037523;28;20041;-77
2024/01/09 10:53:50;;;;;;;7.57;3.45;;;;;;;2.06;100.00;102780.66;5037344;28;20049;-76
2024/01/09 10:56:17;;;;;;;4.65;2.65;;;;;;;2.06;100.00;102785.97;5020775;28;20470;-76
2024/01/09 10:58:46;;;;;;;6.05;2.80;;;;;;;2.09;100.00;102788.47;5054146;28;20089;-76
2024/01/09 11:01:15;;;;;;;5.05;2.17;;;;;;;2.09;100.00;102786.69;5037113;28;20215;-75
2024/01/09 11:03:42;;;;;;;5.13;2.90;;;;;;;2.11;100.00;102776.00;5037559;28;20041;-75
2024/01/09 11:06:08;;;;;;;8.43;2.70;;;;;;;2.18;100.00;102780.09;5037575;28;20115;-76
2024/01/09 11:08:35;;;;;;;4.28;2.25;;;;;;;2.23;100.00;102774.59;5021019;28;20123;-76
2024/01/09 11:11:03;;;;;;;6.68;2.85;;;;;;;2.25;100.00;102778.00;5036925;28;20134;-76
2024/01/09 11:13:29;;;;;;;4.45;2.00;;;;;;;2.30;100.00;102776.00;5004535;28;20044;-76
2024/01/09 11:15:55;;;;;;;7.30;2.47;;;;;;;2.31;100.00;102770.63;5020833;28;20045;-76
2024/01/09 11:18:22;;;;;;;6.38;3.13;;;;;;;2.36;100.00;102775.72;5037270;28;20036;-75